sensor_id;sensor_type;location;lat;lon;timestamp;P1;durP1;ratioP1;P2;durP2;ratioP2
21777;SDS011;11050;52.222;20.916;2023-03-04T00:00:29;28.37;;;11.90;;
21777;SDS011;11050;52.222;20.916;2023-03-04T00:02:55;32.33;;;11.77;;
21777;SDS011;11050;52.222;20.916;2023-03-04T00:05:20;27.70;;;12.50;;
21777;SDS011;11050;52.222;20.916;2023-03-04T00:07:46;29.33;;;13.33;;
21777;SDS011;11050;52.222;20.916;2023-03-04T00:10:12;27.27;;;12.13;;
21777;SDS011;11050;52.222;20.916;2023-03-04T00:12:37;33.40;;;15.60;;
21777;SDS011;11050;52.222;20.916;2023-03-04T00:15:03;25.80;;;10.90;;
21777;SDS011;11050;52.222;20.916;2023-03-04T00:17:29;23.97;;;9.53;;
21777;SDS011;11050;52.222;20.916;2023-03-04T00:19:55;32.93;;;13.97;;
21777;SDS011;11050;52.222;20.916;2023-03-04T00:22:22;31.33;;;14.90;;
21777;SDS011;11050;52.222;20.916;2023-03-04T00:24:48;33.17;;;16.53;;
21777;SDS011;11050;52.222;20.916;2023-03-04T00:27:14;33.50;;;14.97;;
21777;SDS011;11050;52.222;20.916;2023-03-04T00:29:39;37.33;;;18.30;;
21777;SDS011;11050;52.222;20.916;2023-03-04T00:32:05;25.20;;;10.00;;
21777;SDS011;11050;52.222;20.916;2023-03-04T00:34:31;36.50;;;15.03;;
21777;SDS011;11050;52.222;20.916;2023-03-04T00:36:56;27.77;;;13.23;;
21777;SDS011;11050;52.222;20.916;2023-03-04T00:39:26;37.67;;;15.93;;
21777;SDS011;11050;52.222;20.916;2023-03-04T00:41:52;34.77;;;12.83;;
21777;SDS011;11050;52.222;20.916;2023-03-04T00:44:18;36.97;;;16.13;;
21777;SDS011;11050;52.222;20.916;2023-03-04T00:46:44;31.23;;;13.40;;
21777;SDS011;11050;52.222;20.916;2023-03-04T00:49:10;36.27;;;14.57;;
21777;SDS011;11050;52.222;20.916;2023-03-04T00:51:35;30.87;;;12.70;;
21777;SDS011;11050;52.222;20.916;2023-03-04T00:54:01;41.13;;;15.17;;
21777;SDS011;11050;52.222;20.916;2023-03-04T00:56:27;34.67;;;12.77;;
21777;SDS011;11050;52.222;20.916;2023-03-04T00:58:53;27.57;;;11.50;;
21777;SDS011;11050;52.222;20.916;2023-03-04T01:01:19;39.47;;;16.00;;
21777;SDS011;11050;52.222;20.916;2023-03-04T01:03:45;33.60;;;15.20;;
21777;SDS011;11050;52.222;20.916;2023-03-04T01:06:11;42.37;;;17.10;;
21777;SDS011;11050;52.222;20.916;2023-03-04T01:08:37;31.80;;;12.20;;
21777;SDS011;11050;52.222;20.916;2023-03-04T01:11:03;35.83;;;15.20;;
21777;SDS011;11050;52.222;20.916;2023-03-04T01:13:30;34.47;;;15.07;;
21777;SDS011;11050;52.222;20.916;2023-03-04T01:15:55;37.63;;;14.13;;
21777;SDS011;11050;52.222;20.916;2023-03-04T01:18:22;43.00;;;16.70;;
21777;SDS011;11050;52.222;20.916;2023-03-04T01:20:48;38.33;;;16.07;;
21777;SDS011;11050;52.222;20.916;2023-03-04T01:23:14;31.77;;;13.73;;
21777;SDS011;11050;52.222;20.916;2023-03-04T01:25:40;32.17;;;14.60;;
21777;SDS011;11050;52.222;20.916;2023-03-04T01:28:06;26.97;;;11.47;;
21777;SDS011;11050;52.222;20.916;2023-03-04T01:30:32;35.47;;;13.90;;
21777;SDS011;11050;52.222;20.916;2023-03-04T01:32:57;44.27;;;19.97;;
21777;SDS011;11050;52.222;20.916;2023-03-04T01:35:23;42.30;;;17.90;;
21777;SDS011;11050;52.222;20.916;2023-03-04T01:37:49;39.07;;;16.93;;
21777;SDS011;11050;52.222;20.916;2023-03-04T01:40:14;44.87;;;20.30;;
21777;SDS011;11050;52.222;20.916;2023-03-04T01:42:40;35.73;;;16.47;;
21777;SDS011;11050;52.222;20.916;2023-03-04T01:45:09;41.23;;;17.10;;
21777;SDS011;11050;52.222;20.916;2023-03-04T01:47:43;39.03;;;14.43;;
21777;SDS011;11050;52.222;20.916;2023-03-04T01:50:19;50.93;;;19.13;;
21777;SDS011;11050;52.222;20.916;2023-03-04T01:52:57;40.03;;;17.97;;
21777;SDS011;11050;52.222;20.916;2023-03-04T01:55:24;48.87;;;16.90;;
21777;SDS011;11050;52.222;20.916;2023-03-04T01:57:52;50.57;;;20.20;;
21777;SDS011;11050;52.222;20.916;2023-03-04T02:00:36;42.00;;;17.63;;
21777;SDS011;11050;52.222;20.916;2023-03-04T02:03:04;49.60;;;18.60;;
21777;SDS011;11050;52.222;20.916;2023-03-04T02:05:37;41.73;;;17.87;;
21777;SDS011;11050;52.222;20.916;2023-03-04T02:08:10;35.83;;;15.57;;
21777;SDS011;11050;52.222;20.916;2023-03-04T02:10:38;39.80;;;16.93;;
21777;SDS011;11050;52.222;20.916;2023-03-04T02:13:07;27.90;;;11.80;;
21777;SDS011;11050;52.222;20.916;2023-03-04T02:15:33;37.80;;;16.17;;
21777;SDS011;11050;52.222;20.916;2023-03-04T02:17:59;25.93;;;9.77;;
21777;SDS011;11050;52.222;20.916;2023-03-04T02:20:37;38.97;;;15.70;;
21777;SDS011;11050;52.222;20.916;2023-03-04T02:23:38;39.43;;;16.77;;
21777;SDS011;11050;52.222;20.916;2023-03-04T02:26:35;33.40;;;13.33;;
21777;SDS011;11050;52.222;20.916;2023-03-04T02:29:01;40.27;;;16.20;;
21777;SDS011;11050;52.222;20.916;2023-03-04T02:34:10;39.03;;;17.23;;
21777;SDS011;11050;52.222;20.916;2023-03-04T02:36:41;29.07;;;11.13;;
21777;SDS011;11050;52.222;20.916;2023-03-04T02:39:21;46.73;;;18.87;;
21777;SDS011;11050;52.222;20.916;2023-03-04T02:41:59;44.57;;;17.03;;
21777;SDS011;11050;52.222;20.916;2023-03-04T02:44:34;43.77;;;18.63;;
21777;SDS011;11050;52.222;20.916;2023-03-04T02:47:04;43.90;;;16.33;;
21777;SDS011;11050;52.222;20.916;2023-03-04T02:49:33;41.43;;;17.63;;
21777;SDS011;11050;52.222;20.916;2023-03-04T02:52:05;33.60;;;14.13;;
21777;SDS011;11050;52.222;20.916;2023-03-04T02:54:38;42.63;;;18.13;;
21777;SDS011;11050;52.222;20.916;2023-03-04T02:57:05;37.00;;;15.60;;
21777;SDS011;11050;52.222;20.916;2023-03-04T02:59:34;42.87;;;18.27;;
21777;SDS011;11050;52.222;20.916;2023-03-04T03:02:02;33.03;;;14.37;;
21777;SDS011;11050;52.222;20.916;2023-03-04T03:04:28;33.67;;;15.43;;
21777;SDS011;11050;52.222;20.916;2023-03-04T03:06:54;46.97;;;19.93;;
21777;SDS011;11050;52.222;20.916;2023-03-04T03:09:20;42.67;;;19.23;;
21777;SDS011;11050;52.222;20.916;2023-03-04T03:11:46;47.80;;;21.53;;
21777;SDS011;11050;52.222;20.916;2023-03-04T03:14:12;44.57;;;18.33;;
21777;SDS011;11050;52.222;20.916;2023-03-04T03:16:38;33.03;;;14.13;;
21777;SDS011;11050;52.222;20.916;2023-03-04T03:19:04;37.23;;;16.03;;
21777;SDS011;11050;52.222;20.916;2023-03-04T03:21:29;33.43;;;15.27;;
21777;SDS011;11050;52.222;20.916;2023-03-04T03:23:55;31.50;;;12.37;;
21777;SDS011;11050;52.222;20.916;2023-03-04T03:26:21;38.40;;;15.17;;
21777;SDS011;11050;52.222;20.916;2023-03-04T03:28:46;26.67;;;12.13;;
21777;SDS011;11050;52.222;20.916;2023-03-04T03:31:12;32.07;;;15.67;;
21777;SDS011;11050;52.222;20.916;2023-03-04T03:33:38;38.90;;;16.33;;
21777;SDS011;11050;52.222;20.916;2023-03-04T03:36:04;30.97;;;13.10;;
21777;SDS011;11050;52.222;20.916;2023-03-04T03:38:31;32.60;;;16.13;;
21777;SDS011;11050;52.222;20.916;2023-03-04T03:40:57;34.27;;;13.40;;
21777;SDS011;11050;52.222;20.916;2023-03-04T03:43:23;42.53;;;17.93;;
21777;SDS011;11050;52.222;20.916;2023-03-04T03:45:49;38.57;;;17.43;;
21777;SDS011;11050;52.222;20.916;2023-03-04T03:48:15;41.90;;;17.10;;
21777;SDS011;11050;52.222;20.916;2023-03-04T03:50:42;42.37;;;18.13;;
21777;SDS011;11050;52.222;20.916;2023-03-04T03:53:09;40.80;;;18.47;;
21777;SDS011;11050;52.222;20.916;2023-03-04T03:55:35;34.60;;;15.00;;
21777;SDS011;11050;52.222;20.916;2023-03-04T03:58:01;40.77;;;17.27;;
21777;SDS011;11050;52.222;20.916;2023-03-04T04:00:26;35.63;;;15.73;;
21777;SDS011;11050;52.222;20.916;2023-03-04T04:02:53;35.07;;;15.83;;
21777;SDS011;11050;52.222;20.916;2023-03-04T04:05:21;26.50;;;12.00;;
21777;SDS011;11050;52.222;20.916;2023-03-04T04:07:46;32.23;;;14.33;;
21777;SDS011;11050;52.222;20.916;2023-03-04T04:10:12;36.60;;;15.17;;
21777;SDS011;11050;52.222;20.916;2023-03-04T04:12:38;37.40;;;17.70;;
21777;SDS011;11050;52.222;20.916;2023-03-04T04:15:04;39.00;;;18.00;;
21777;SDS011;11050;52.222;20.916;2023-03-04T04:17:30;27.27;;;13.27;;
21777;SDS011;11050;52.222;20.916;2023-03-04T04:19:56;36.17;;;17.60;;
21777;SDS011;11050;52.222;20.916;2023-03-04T04:22:22;40.67;;;18.53;;
21777;SDS011;11050;52.222;20.916;2023-03-04T04:24:47;31.47;;;14.77;;
21777;SDS011;11050;52.222;20.916;2023-03-04T04:27:13;37.23;;;17.57;;
21777;SDS011;11050;52.222;20.916;2023-03-04T04:29:39;41.67;;;18.57;;
21777;SDS011;11050;52.222;20.916;2023-03-04T04:32:05;24.77;;;10.87;;
21777;SDS011;11050;52.222;20.916;2023-03-04T04:34:32;39.63;;;16.93;;
21777;SDS011;11050;52.222;20.916;2023-03-04T04:36:58;26.87;;;12.50;;
21777;SDS011;11050;52.222;20.916;2023-03-04T04:39:24;40.57;;;17.53;;
21777;SDS011;11050;52.222;20.916;2023-03-04T04:41:50;42.30;;;16.57;;
21777;SDS011;11050;52.222;20.916;2023-03-04T04:44:16;42.77;;;18.77;;
21777;SDS011;11050;52.222;20.916;2023-03-04T04:46:42;35.17;;;18.23;;
21777;SDS011;11050;52.222;20.916;2023-03-04T04:49:08;31.17;;;14.33;;
21777;SDS011;11050;52.222;20.916;2023-03-04T04:51:35;25.80;;;11.70;;
21777;SDS011;11050;52.222;20.916;2023-03-04T04:54:03;33.13;;;16.23;;
21777;SDS011;11050;52.222;20.916;2023-03-04T04:56:30;37.63;;;16.30;;
21777;SDS011;11050;52.222;20.916;2023-03-04T04:58:57;35.63;;;16.20;;
21777;SDS011;11050;52.222;20.916;2023-03-04T05:01:27;34.90;;;16.23;;
21777;SDS011;11050;52.222;20.916;2023-03-04T05:03:53;30.80;;;15.57;;
21777;SDS011;11050;52.222;20.916;2023-03-04T05:06:19;26.50;;;11.77;;
21777;SDS011;11050;52.222;20.916;2023-03-04T05:08:48;23.70;;;12.73;;
21777;SDS011;11050;52.222;20.916;2023-03-04T05:11:15;33.20;;;15.60;;
21777;SDS011;11050;52.222;20.916;2023-03-04T05:13:41;37.27;;;17.20;;
21777;SDS011;11050;52.222;20.916;2023-03-04T05:16:07;30.27;;;15.07;;
21777;SDS011;11050;52.222;20.916;2023-03-04T05:18:33;32.93;;;15.37;;
21777;SDS011;11050;52.222;20.916;2023-03-04T05:21:00;33.83;;;16.80;;
21777;SDS011;11050;52.222;20.916;2023-03-04T05:23:29;33.00;;;17.07;;
21777;SDS011;11050;52.222;20.916;2023-03-04T05:26:01;28.83;;;14.10;;
21777;SDS011;11050;52.222;20.916;2023-03-04T05:28:29;30.17;;;13.93;;
21777;SDS011;11050;52.222;20.916;2023-03-04T05:30:55;25.07;;;11.07;;
21777;SDS011;11050;52.222;20.916;2023-03-04T05:33:21;18.80;;;9.63;;
21777;SDS011;11050;52.222;20.916;2023-03-04T05:35:47;32.83;;;15.57;;
21777;SDS011;11050;52.222;20.916;2023-03-04T05:38:16;29.93;;;14.20;;
21777;SDS011;11050;52.222;20.916;2023-03-04T05:40:44;28.10;;;12.07;;
21777;SDS011;11050;52.222;20.916;2023-03-04T05:43:11;27.73;;;13.07;;
21777;SDS011;11050;52.222;20.916;2023-03-04T05:45:37;27.50;;;13.50;;
21777;SDS011;11050;52.222;20.916;2023-03-04T05:48:04;21.27;;;10.53;;
21777;SDS011;11050;52.222;20.916;2023-03-04T05:50:31;27.40;;;14.17;;
21777;SDS011;11050;52.222;20.916;2023-03-04T05:52:57;33.17;;;16.30;;
21777;SDS011;11050;52.222;20.916;2023-03-04T05:55:24;21.17;;;9.73;;
21777;SDS011;11050;52.222;20.916;2023-03-04T05:57:52;27.80;;;12.33;;
21777;SDS011;11050;52.222;20.916;2023-03-04T06:00:18;34.30;;;16.60;;
21777;SDS011;11050;52.222;20.916;2023-03-04T06:02:44;29.33;;;9.60;;
21777;SDS011;11050;52.222;20.916;2023-03-04T06:05:10;31.43;;;15.27;;
21777;SDS011;11050;52.222;20.916;2023-03-04T06:07:38;25.53;;;11.80;;
21777;SDS011;11050;52.222;20.916;2023-03-04T06:10:07;27.03;;;13.10;;
21777;SDS011;11050;52.222;20.916;2023-03-04T06:12:34;26.30;;;12.87;;
21777;SDS011;11050;52.222;20.916;2023-03-04T06:14:59;28.20;;;13.60;;
21777;SDS011;11050;52.222;20.916;2023-03-04T06:17:26;32.80;;;14.63;;
21777;SDS011;11050;52.222;20.916;2023-03-04T06:19:54;22.87;;;11.53;;
21777;SDS011;11050;52.222;20.916;2023-03-04T06:22:20;22.33;;;10.87;;
21777;SDS011;11050;52.222;20.916;2023-03-04T06:24:45;20.13;;;10.20;;
21777;SDS011;11050;52.222;20.916;2023-03-04T06:27:11;29.23;;;12.27;;
21777;SDS011;11050;52.222;20.916;2023-03-04T06:29:37;26.83;;;12.40;;
21777;SDS011;11050;52.222;20.916;2023-03-04T06:32:03;27.47;;;13.13;;
21777;SDS011;11050;52.222;20.916;2023-03-04T06:34:30;27.97;;;13.37;;
21777;SDS011;11050;52.222;20.916;2023-03-04T06:36:57;24.43;;;11.73;;
21777;SDS011;11050;52.222;20.916;2023-03-04T06:39:23;24.27;;;11.90;;
21777;SDS011;11050;52.222;20.916;2023-03-04T06:41:49;21.67;;;10.13;;
21777;SDS011;11050;52.222;20.916;2023-03-04T06:44:15;27.33;;;12.73;;
21777;SDS011;11050;52.222;20.916;2023-03-04T06:46:40;27.07;;;12.10;;
21777;SDS011;11050;52.222;20.916;2023-03-04T06:49:06;29.20;;;14.60;;
21777;SDS011;11050;52.222;20.916;2023-03-04T06:51:32;29.10;;;12.70;;
21777;SDS011;11050;52.222;20.916;2023-03-04T06:53:57;23.83;;;11.63;;
21777;SDS011;11050;52.222;20.916;2023-03-04T06:56:23;17.10;;;9.63;;
21777;SDS011;11050;52.222;20.916;2023-03-04T06:58:49;19.93;;;9.97;;
21777;SDS011;11050;52.222;20.916;2023-03-04T07:01:19;21.67;;;9.93;;
21777;SDS011;11050;52.222;20.916;2023-03-04T07:03:49;24.50;;;11.73;;
21777;SDS011;11050;52.222;20.916;2023-03-04T07:06:17;29.93;;;12.10;;
21777;SDS011;11050;52.222;20.916;2023-03-04T07:08:45;18.13;;;9.83;;
21777;SDS011;11050;52.222;20.916;2023-03-04T07:11:13;30.50;;;14.67;;
21777;SDS011;11050;52.222;20.916;2023-03-04T07:13:40;26.77;;;13.07;;
21777;SDS011;11050;52.222;20.916;2023-03-04T07:16:06;32.70;;;11.40;;
21777;SDS011;11050;52.222;20.916;2023-03-04T07:18:35;29.70;;;14.73;;
21777;SDS011;11050;52.222;20.916;2023-03-04T07:21:02;27.90;;;14.40;;
21777;SDS011;11050;52.222;20.916;2023-03-04T07:23:29;25.87;;;14.73;;
21777;SDS011;11050;52.222;20.916;2023-03-04T07:25:55;29.80;;;13.37;;
21777;SDS011;11050;52.222;20.916;2023-03-04T07:28:21;28.07;;;13.23;;
21777;SDS011;11050;52.222;20.916;2023-03-04T07:30:47;28.90;;;13.83;;
21777;SDS011;11050;52.222;20.916;2023-03-04T07:33:13;28.60;;;13.17;;
21777;SDS011;11050;52.222;20.916;2023-03-04T07:35:39;27.13;;;14.07;;
21777;SDS011;11050;52.222;20.916;2023-03-04T07:38:05;22.43;;;9.50;;
21777;SDS011;11050;52.222;20.916;2023-03-04T07:40:31;23.50;;;12.50;;
21777;SDS011;11050;52.222;20.916;2023-03-04T07:42:56;19.57;;;9.17;;
21777;SDS011;11050;52.222;20.916;2023-03-04T07:45:23;24.43;;;12.73;;
21777;SDS011;11050;52.222;20.916;2023-03-04T07:47:49;20.30;;;9.73;;
21777;SDS011;11050;52.222;20.916;2023-03-04T07:50:15;21.17;;;11.93;;
21777;SDS011;11050;52.222;20.916;2023-03-04T07:52:44;23.53;;;10.73;;
21777;SDS011;11050;52.222;20.916;2023-03-04T07:55:12;24.53;;;9.53;;
21777;SDS011;11050;52.222;20.916;2023-03-04T07:57:43;24.20;;;10.27;;
21777;SDS011;11050;52.222;20.916;2023-03-04T08:00:12;18.33;;;9.40;;
21777;SDS011;11050;52.222;20.916;2023-03-04T08:02:41;24.83;;;11.97;;
21777;SDS011;11050;52.222;20.916;2023-03-04T08:05:07;22.80;;;12.30;;
21777;SDS011;11050;52.222;20.916;2023-03-04T08:07:33;21.73;;;9.67;;
21777;SDS011;11050;52.222;20.916;2023-03-04T08:09:59;21.40;;;10.77;;
21777;SDS011;11050;52.222;20.916;2023-03-04T08:12:25;14.50;;;8.40;;
21777;SDS011;11050;52.222;20.916;2023-03-04T08:14:52;19.90;;;9.37;;
21777;SDS011;11050;52.222;20.916;2023-03-04T08:17:17;23.03;;;11.77;;
21777;SDS011;11050;52.222;20.916;2023-03-04T08:19:43;23.47;;;11.50;;
21777;SDS011;11050;52.222;20.916;2023-03-04T08:22:09;16.80;;;8.60;;
21777;SDS011;11050;52.222;20.916;2023-03-04T08:24:35;18.83;;;9.10;;
21777;SDS011;11050;52.222;20.916;2023-03-04T08:27:00;22.40;;;9.77;;
21777;SDS011;11050;52.222;20.916;2023-03-04T08:29:26;23.20;;;11.60;;
21777;SDS011;11050;52.222;20.916;2023-03-04T08:31:52;21.23;;;10.83;;
21777;SDS011;11050;52.222;20.916;2023-03-04T08:34:20;22.20;;;10.30;;
21777;SDS011;11050;52.222;20.916;2023-03-04T08:36:49;19.53;;;10.03;;
21777;SDS011;11050;52.222;20.916;2023-03-04T08:39:15;18.87;;;8.83;;
21777;SDS011;11050;52.222;20.916;2023-03-04T08:41:43;25.33;;;12.30;;
21777;SDS011;11050;52.222;20.916;2023-03-04T08:44:09;23.80;;;10.87;;
21777;SDS011;11050;52.222;20.916;2023-03-04T08:46:35;18.40;;;8.37;;
21777;SDS011;11050;52.222;20.916;2023-03-04T08:49:03;26.10;;;11.33;;
21777;SDS011;11050;52.222;20.916;2023-03-04T08:51:30;18.77;;;8.07;;
21777;SDS011;11050;52.222;20.916;2023-03-04T08:53:56;14.47;;;7.53;;
21777;SDS011;11050;52.222;20.916;2023-03-04T08:56:21;16.30;;;8.53;;
21777;SDS011;11050;52.222;20.916;2023-03-04T08:58:48;21.33;;;10.80;;
21777;SDS011;11050;52.222;20.916;2023-03-04T09:01:14;15.23;;;7.87;;
21777;SDS011;11050;52.222;20.916;2023-03-04T09:03:40;23.80;;;11.60;;
21777;SDS011;11050;52.222;20.916;2023-03-04T09:06:07;26.83;;;13.10;;
21777;SDS011;11050;52.222;20.916;2023-03-04T09:08:35;19.50;;;10.43;;
21777;SDS011;11050;52.222;20.916;2023-03-04T09:11:01;25.13;;;13.07;;
21777;SDS011;11050;52.222;20.916;2023-03-04T09:13:28;22.03;;;11.17;;
21777;SDS011;11050;52.222;20.916;2023-03-04T09:15:55;22.87;;;11.83;;
21777;SDS011;11050;52.222;20.916;2023-03-04T09:18:22;13.87;;;7.47;;
21777;SDS011;11050;52.222;20.916;2023-03-04T09:20:48;26.37;;;12.20;;
21777;SDS011;11050;52.222;20.916;2023-03-04T09:23:14;18.37;;;10.67;;
21777;SDS011;11050;52.222;20.916;2023-03-04T09:25:42;29.17;;;12.17;;
21777;SDS011;11050;52.222;20.916;2023-03-04T09:28:10;21.10;;;8.73;;
21777;SDS011;11050;52.222;20.916;2023-03-04T09:30:37;21.83;;;10.57;;
21777;SDS011;11050;52.222;20.916;2023-03-04T09:33:03;22.20;;;10.77;;
21777;SDS011;11050;52.222;20.916;2023-03-04T09:35:29;17.47;;;10.03;;
21777;SDS011;11050;52.222;20.916;2023-03-04T09:37:55;23.97;;;11.23;;
21777;SDS011;11050;52.222;20.916;2023-03-04T09:40:22;25.90;;;11.73;;
21777;SDS011;11050;52.222;20.916;2023-03-04T09:42:54;22.93;;;11.17;;
21777;SDS011;11050;52.222;20.916;2023-03-04T09:46:12;22.17;;;10.47;;
21777;SDS011;11050;52.222;20.916;2023-03-04T09:48:24;20.97;;;10.67;;
21777;SDS011;11050;52.222;20.916;2023-03-04T09:56:41;20.70;;;6.97;;
21777;SDS011;11050;52.222;20.916;2023-03-04T10:01:57;23.37;;;8.60;;
21777;SDS011;11050;52.222;20.916;2023-03-04T10:04:48;21.03;;;10.67;;
21777;SDS011;11050;52.222;20.916;2023-03-04T10:07:21;22.23;;;10.10;;
21777;SDS011;11050;52.222;20.916;2023-03-04T10:09:54;21.40;;;9.47;;
21777;SDS011;11050;52.222;20.916;2023-03-04T10:12:29;21.70;;;10.80;;
21777;SDS011;11050;52.222;20.916;2023-03-04T10:15:07;20.20;;;9.37;;
21777;SDS011;11050;52.222;20.916;2023-03-04T10:18:19;18.47;;;7.53;;
21777;SDS011;11050;52.222;20.916;2023-03-04T10:21:05;18.10;;;8.60;;
21777;SDS011;11050;52.222;20.916;2023-03-04T10:23:44;22.90;;;8.47;;
21777;SDS011;11050;52.222;20.916;2023-03-04T10:26:14;17.67;;;7.47;;
21777;SDS011;11050;52.222;20.916;2023-03-04T10:28:45;22.00;;;9.73;;
21777;SDS011;11050;52.222;20.916;2023-03-04T10:34:00;25.97;;;10.53;;
21777;SDS011;11050;52.222;20.916;2023-03-04T10:38:57;25.07;;;10.37;;
21777;SDS011;11050;52.222;20.916;2023-03-04T10:41:31;26.10;;;9.37;;
21777;SDS011;11050;52.222;20.916;2023-03-04T10:46:32;22.57;;;9.70;;
21777;SDS011;11050;52.222;20.916;2023-03-04T10:49:08;23.03;;;8.67;;
21777;SDS011;11050;52.222;20.916;2023-03-04T10:51:42;26.10;;;11.80;;
21777;SDS011;11050;52.222;20.916;2023-03-04T10:57:03;21.73;;;9.60;;
21777;SDS011;11050;52.222;20.916;2023-03-04T10:59:48;22.23;;;9.40;;
21777;SDS011;11050;52.222;20.916;2023-03-04T11:07:43;20.17;;;8.97;;
21777;SDS011;11050;52.222;20.916;2023-03-04T11:10:24;23.67;;;9.40;;
21777;SDS011;11050;52.222;20.916;2023-03-04T11:13:02;16.80;;;7.50;;
21777;SDS011;11050;52.222;20.916;2023-03-04T11:18:23;20.93;;;9.60;;
21777;SDS011;11050;52.222;20.916;2023-03-04T11:21:04;18.67;;;7.57;;
21777;SDS011;11050;52.222;20.916;2023-03-04T11:23:38;19.80;;;10.07;;
21777;SDS011;11050;52.222;20.916;2023-03-04T11:26:23;21.13;;;8.63;;
21777;SDS011;11050;52.222;20.916;2023-03-04T11:31:48;17.17;;;8.07;;
21777;SDS011;11050;52.222;20.916;2023-03-04T11:37:17;28.67;;;10.70;;
21777;SDS011;11050;52.222;20.916;2023-03-04T11:40:10;24.00;;;10.27;;
21777;SDS011;11050;52.222;20.916;2023-03-04T11:43:11;18.03;;;6.57;;
21777;SDS011;11050;52.222;20.916;2023-03-04T11:54:34;22.67;;;11.53;;
21777;SDS011;11050;52.222;20.916;2023-03-04T12:03:43;26.27;;;12.10;;
21777;SDS011;11050;52.222;20.916;2023-03-04T12:09:41;26.30;;;13.07;;
21777;SDS011;11050;52.222;20.916;2023-03-04T12:15:31;20.73;;;11.33;;
21777;SDS011;11050;52.222;20.916;2023-03-04T12:24:34;23.60;;;9.73;;
21777;SDS011;11050;52.222;20.916;2023-03-04T12:27:42;40.60;;;23.70;;
21777;SDS011;11050;52.222;20.916;2023-03-04T12:39:12;26.53;;;11.10;;
21777;SDS011;11050;52.222;20.916;2023-03-04T12:41:49;21.80;;;11.33;;
21777;SDS011;11050;52.222;20.916;2023-03-04T12:44:32;24.53;;;14.43;;
21777;SDS011;11050;52.222;20.916;2023-03-04T12:47:30;23.87;;;12.37;;
21777;SDS011;11050;52.222;20.916;2023-03-04T12:53:09;22.00;;;11.80;;
21777;SDS011;11050;52.222;20.916;2023-03-04T12:55:54;21.63;;;11.07;;
21777;SDS011;11050;52.222;20.916;2023-03-04T12:58:24;18.93;;;10.00;;
21777;SDS011;11050;52.222;20.916;2023-03-04T13:06:47;27.83;;;11.07;;
21777;SDS011;11050;52.222;20.916;2023-03-04T13:09:37;21.60;;;11.07;;
21777;SDS011;11050;52.222;20.916;2023-03-04T13:12:23;10.97;;;6.70;;
21777;SDS011;11050;52.222;20.916;2023-03-04T13:22:58;16.70;;;9.67;;
21777;SDS011;11050;52.222;20.916;2023-03-04T13:38:22;34.43;;;17.00;;
21777;SDS011;11050;52.222;20.916;2023-03-04T13:43:53;79.50;;;39.67;;
21777;SDS011;11050;52.222;20.916;2023-03-04T13:51:35;11.80;;;5.43;;
21777;SDS011;11050;52.222;20.916;2023-03-04T13:54:13;9.47;;;4.97;;
21777;SDS011;11050;52.222;20.916;2023-03-04T13:59:26;8.40;;;3.03;;
21777;SDS011;11050;52.222;20.916;2023-03-04T14:01:57;9.10;;;4.77;;
21777;SDS011;11050;52.222;20.916;2023-03-04T14:04:41;8.93;;;3.00;;
21777;SDS011;11050;52.222;20.916;2023-03-04T14:07:43;7.03;;;4.13;;
21777;SDS011;11050;52.222;20.916;2023-03-04T14:10:07;4.73;;;2.27;;
21777;SDS011;11050;52.222;20.916;2023-03-04T14:12:52;7.93;;;3.93;;
21777;SDS011;11050;52.222;20.916;2023-03-04T14:15:22;9.87;;;2.50;;
21777;SDS011;11050;52.222;20.916;2023-03-04T14:17:52;6.30;;;2.90;;
21777;SDS011;11050;52.222;20.916;2023-03-04T14:20:30;6.47;;;2.93;;
21777;SDS011;11050;52.222;20.916;2023-03-04T14:23:01;32.07;;;23.80;;
21777;SDS011;11050;52.222;20.916;2023-03-04T14:25:49;4.40;;;2.13;;
21777;SDS011;11050;52.222;20.916;2023-03-04T14:28:16;6.83;;;2.83;;
21777;SDS011;11050;52.222;20.916;2023-03-04T14:30:54;6.13;;;2.70;;
21777;SDS011;11050;52.222;20.916;2023-03-04T14:33:25;7.18;;;2.65;;
21777;SDS011;11050;52.222;20.916;2023-03-04T14:35:55;4.88;;;3.10;;
21777;SDS011;11050;52.222;20.916;2023-03-04T14:38:25;7.97;;;3.22;;
21777;SDS011;11050;52.222;20.916;2023-03-04T14:41:06;7.40;;;3.17;;
21777;SDS011;11050;52.222;20.916;2023-03-04T14:43:42;4.82;;;2.65;;
21777;SDS011;11050;52.222;20.916;2023-03-04T14:46:35;5.88;;;2.88;;
21777;SDS011;11050;52.222;20.916;2023-03-04T14:49:08;7.00;;;2.63;;
21777;SDS011;11050;52.222;20.916;2023-03-04T14:51:42;8.10;;;2.80;;
21777;SDS011;11050;52.222;20.916;2023-03-04T14:56:57;5.55;;;2.63;;
21777;SDS011;11050;52.222;20.916;2023-03-04T14:59:32;6.97;;;3.53;;
21777;SDS011;11050;52.222;20.916;2023-03-04T15:04:47;7.03;;;2.08;;
21777;SDS011;11050;52.222;20.916;2023-03-04T15:07:16;5.60;;;2.25;;
21777;SDS011;11050;52.222;20.916;2023-03-04T15:09:49;6.35;;;2.28;;
21777;SDS011;11050;52.222;20.916;2023-03-04T15:12:29;6.77;;;3.13;;
21777;SDS011;11050;52.222;20.916;2023-03-04T15:15:03;5.30;;;2.20;;
21777;SDS011;11050;52.222;20.916;2023-03-04T15:18:02;6.17;;;2.10;;
21777;SDS011;11050;52.222;20.916;2023-03-04T15:20:40;4.77;;;1.57;;
21777;SDS011;11050;52.222;20.916;2023-03-04T15:23:06;4.40;;;2.37;;
21777;SDS011;11050;52.222;20.916;2023-03-04T15:25:32;4.97;;;2.03;;
21777;SDS011;11050;52.222;20.916;2023-03-04T15:27:59;4.00;;;1.70;;
21777;SDS011;11050;52.222;20.916;2023-03-04T15:30:28;5.00;;;1.70;;
21777;SDS011;11050;52.222;20.916;2023-03-04T15:32:57;2.80;;;1.33;;
21777;SDS011;11050;52.222;20.916;2023-03-04T15:35:26;3.47;;;1.20;;
21777;SDS011;11050;52.222;20.916;2023-03-04T15:37:55;3.57;;;0.90;;
21777;SDS011;11050;52.222;20.916;2023-03-04T15:43:03;2.43;;;1.00;;
21777;SDS011;11050;52.222;20.916;2023-03-04T15:45:35;5.10;;;1.30;;
21777;SDS011;11050;52.222;20.916;2023-03-04T15:48:06;3.10;;;1.10;;
21777;SDS011;11050;52.222;20.916;2023-03-04T15:50:36;5.03;;;1.40;;
21777;SDS011;11050;52.222;20.916;2023-03-04T15:53:21;3.13;;;1.23;;
21777;SDS011;11050;52.222;20.916;2023-03-04T15:55:57;1.77;;;1.00;;
21777;SDS011;11050;52.222;20.916;2023-03-04T15:58:24;1.57;;;0.80;;
21777;SDS011;11050;52.222;20.916;2023-03-04T16:00:51;3.07;;;1.07;;
21777;SDS011;11050;52.222;20.916;2023-03-04T16:03:18;1.63;;;0.90;;
21777;SDS011;11050;52.222;20.916;2023-03-04T16:05:46;3.43;;;1.30;;
21777;SDS011;11050;52.222;20.916;2023-03-04T16:08:15;4.10;;;1.13;;
21777;SDS011;11050;52.222;20.916;2023-03-04T16:10:44;2.03;;;1.00;;
21777;SDS011;11050;52.222;20.916;2023-03-04T16:13:11;5.00;;;0.87;;
21777;SDS011;11050;52.222;20.916;2023-03-04T16:15:43;3.43;;;1.40;;
21777;SDS011;11050;52.222;20.916;2023-03-04T16:18:10;3.77;;;1.00;;
21777;SDS011;11050;52.222;20.916;2023-03-04T16:20:38;2.67;;;1.20;;
21777;SDS011;11050;52.222;20.916;2023-03-04T16:23:09;3.77;;;1.30;;
21777;SDS011;11050;52.222;20.916;2023-03-04T16:25:45;2.50;;;1.30;;
21777;SDS011;11050;52.222;20.916;2023-03-04T16:28:13;4.13;;;1.00;;
21777;SDS011;11050;52.222;20.916;2023-03-04T16:30:39;4.30;;;1.33;;
21777;SDS011;11050;52.222;20.916;2023-03-04T16:33:05;4.23;;;1.40;;